createdAt,value
2022-11-01T00:04:57.721Z,14.49
2022-11-01T00:09:59.464Z,14.54
2022-11-01T00:15:01.183Z,14.54
2022-11-01T00:20:02.950Z,14.35
2022-11-01T00:25:05.304Z,14.29
2022-11-01T00:30:07.264Z,14.25
2022-11-01T00:35:09.133Z,14.22
2022-11-01T00:40:11.324Z,14.27
2022-11-01T00:45:13.111Z,13.97
2022-11-01T00:50:14.904Z,14.03
2022-11-01T00:55:16.577Z,14.06
2022-11-01T01:00:18.277Z,14.07
2022-11-01T01:05:19.998Z,13.82
2022-11-01T01:10:21.736Z,14.05
2022-11-01T01:15:23.430Z,13.97
2022-11-01T01:20:25.183Z,13.54
2022-11-01T01:25:26.900Z,13.66
2022-11-01T01:30:28.619Z,13.48
2022-11-01T01:35:30.322Z,13.59
2022-11-01T01:40:32.699Z,13.52
2022-11-01T01:45:36.550Z,13.55
2022-11-01T01:50:39.984Z,13.57
2022-11-01T01:56:09.665Z,13.43
2022-11-01T02:01:11.484Z,13.73
2022-11-01T02:06:15.414Z,13.83
2022-11-01T02:11:17.337Z,13.71
2022-11-01T02:16:39.576Z,13.70
2022-11-01T02:21:46.601Z,13.69
2022-11-01T02:26:57.710Z,13.68
2022-11-01T02:32:24.123Z,13.67
2022-11-01T02:37:32.603Z,13.79
2022-11-01T02:42:37.066Z,13.62
2022-11-01T02:47:38.800Z,13.69
2022-11-01T02:52:40.829Z,13.86
2022-11-01T02:57:42.494Z,13.82
2022-11-01T03:02:44.425Z,13.64
2022-11-01T03:07:48.490Z,13.54
2022-11-01T03:13:05.690Z,13.68
2022-11-01T03:18:13.302Z,13.85
2022-11-01T03:23:35.979Z,13.86
2022-11-01T03:28:45.777Z,13.90
2022-11-01T03:33:58.170Z,13.99
2022-11-01T03:39:24.216Z,13.93
2022-11-01T03:44:25.874Z,13.75
2022-11-01T03:49:27.495Z,13.96
2022-11-01T03:54:29.206Z,14.05
2022-11-01T03:59:30.903Z,13.92
2022-11-01T04:04:32.486Z,14.07
2022-11-01T04:09:34.117Z,14.28
2022-11-01T04:14:54.378Z,14.23
2022-11-01T04:20:14.590Z,13.91
2022-11-01T04:25:16.257Z,14.19
2022-11-01T04:30:20.405Z,14.23
2022-11-01T04:35:22.366Z,14.27
2022-11-01T04:40:24.143Z,14.34
2022-11-01T04:45:25.916Z,14.33
2022-11-01T04:50:27.721Z,14.24
2022-11-01T04:55:29.570Z,14.14
2022-11-01T05:00:33.074Z,14.06
2022-11-01T05:05:35.129Z,14.04
2022-11-01T05:10:38.416Z,14.14
2022-11-01T05:15:53.203Z,13.99
2022-11-01T05:21:01.667Z,14.07
2022-11-01T05:26:03.345Z,13.91
2022-11-01T05:31:05.097Z,14.03
2022-11-01T05:36:07.449Z,13.99
2022-11-01T05:41:09.221Z,14.13
2022-11-01T05:46:10.882Z,14.04
2022-11-01T05:51:12.532Z,13.98
2022-11-01T05:56:14.291Z,14.10
2022-11-01T06:01:17.828Z,13.93
2022-11-01T06:06:19.597Z,13.82
2022-11-01T06:11:21.290Z,13.97
2022-11-01T06:16:23.062Z,13.96
2022-11-01T06:21:27.648Z,14.35
2022-11-01T06:26:31.839Z,14.40
2022-11-01T06:31:33.461Z,14.18
2022-11-01T06:36:35.079Z,14.16
2022-11-01T06:41:36.698Z,14.32
2022-11-01T06:46:38.423Z,14.41
2022-11-01T06:51:40.083Z,14.30
2022-11-01T06:56:41.731Z,14.39
2022-11-01T07:01:44.135Z,14.57
2022-11-01T07:06:45.969Z,14.45
2022-11-01T07:11:47.607Z,14.38
2022-11-01T07:16:49.266Z,14.63
2022-11-01T07:21:50.879Z,14.89
2022-11-01T07:26:52.529Z,15.01
2022-11-01T07:31:54.149Z,14.82
2022-11-01T07:36:55.795Z,15.39
2022-11-01T07:41:58.722Z,15.88
2022-11-01T07:47:00.390Z,16.39
2022-11-01T07:52:04.157Z,16.24
2022-11-01T07:57:05.894Z,16.02
2022-11-01T08:02:09.143Z,16.11
2022-11-01T08:07:10.828Z,16.20
2022-11-01T08:12:12.673Z,16.32
2022-11-01T08:17:14.289Z,16.43
2022-11-01T08:22:15.927Z,16.45
2022-11-01T08:27:17.616Z,16.44
2022-11-01T08:32:21.005Z,16.40
2022-11-01T08:37:22.678Z,16.61
2022-11-01T08:42:24.292Z,16.96
2022-11-01T08:47:25.933Z,17.44
2022-11-01T08:52:28.052Z,18.42
2022-11-01T08:57:30.225Z,19.05
2022-11-01T09:02:31.884Z,18.51
2022-11-01T09:07:35.999Z,18.09
2022-11-01T09:12:37.885Z,17.83
2022-11-01T09:17:39.570Z,17.72
2022-11-01T09:22:41.310Z,17.78
2022-11-01T09:27:42.961Z,17.95
2022-11-01T09:32:44.568Z,17.97
2022-11-01T09:37:46.219Z,18.16
2022-11-01T09:42:47.911Z,18.24
2022-11-01T09:47:53.901Z,18.80
2022-11-01T09:52:55.778Z,19.48
2022-11-01T09:58:01.121Z,26.14
2022-11-01T10:03:16.029Z,31.57
2022-11-01T10:08:37.853Z,30.89
2022-11-01T10:13:49.813Z,30.32
2022-11-01T10:18:57.796Z,27.99
2022-11-01T10:23:59.922Z,25.04
2022-11-01T10:29:20.272Z,23.07
2022-11-01T10:34:41.412Z,21.86
2022-11-01T10:39:55.612Z,21.03
2022-11-01T10:45:01.450Z,20.61
2022-11-01T10:50:12.392Z,20.26
2022-11-01T10:55:40.043Z,20.37
2022-11-01T11:00:41.762Z,20.58
2022-11-01T11:05:43.474Z,21.87
2022-11-01T11:10:45.456Z,26.08
2022-11-01T11:15:52.559Z,26.94
2022-11-01T11:21:08.628Z,28.64
2022-11-01T11:26:13.412Z,28.44
2022-11-01T11:31:26.436Z,28.51
2022-11-01T11:36:31.295Z,31.30
2022-11-01T11:41:35.201Z,32.33
2022-11-01T11:46:36.827Z,35.14
2022-11-01T11:51:38.601Z,33.27
2022-11-01T11:56:40.226Z,36.72
2022-11-01T12:01:42.009Z,38.48
2022-11-01T12:06:44.495Z,38.21
2022-11-01T12:11:46.175Z,36.85
2022-11-01T12:16:47.873Z,30.86
2022-11-01T12:21:49.494Z,27.19
2022-11-01T12:26:51.865Z,25.54
2022-11-01T12:31:53.720Z,24.90
2022-11-01T12:37:32.894Z,24.04
2022-11-01T12:42:39.647Z,23.89
2022-11-01T12:47:43.707Z,23.58
2022-11-01T12:53:03.246Z,23.49
2022-11-01T12:58:07.638Z,23.07
2022-11-01T13:03:47.514Z,22.82
2022-11-01T13:09:14.994Z,22.39
2022-11-01T13:14:43.539Z,22.50
2022-11-01T13:20:22.098Z,22.31
2022-11-01T13:25:49.939Z,22.14
2022-11-01T13:30:58.316Z,21.90
2022-11-01T13:36:30.278Z,21.68
2022-11-01T13:41:57.130Z,21.67
2022-11-01T13:46:58.683Z,21.36
2022-11-01T13:52:19.777Z,21.17
2022-11-01T13:57:22.581Z,21.12
2022-11-01T14:02:24.411Z,20.88
2022-11-01T14:07:30.675Z,20.81
2022-11-01T14:12:37.421Z,20.52
2022-11-01T14:17:56.623Z,20.29
2022-11-01T14:22:58.312Z,20.05
2022-11-01T14:28:20.315Z,20.01
2022-11-01T14:33:22.451Z,19.68
2022-11-01T14:38:31.767Z,19.35
2022-11-01T14:43:41.105Z,19.21
2022-11-01T14:49:01.437Z,18.93
2022-11-01T14:54:13.232Z,18.71
2022-11-01T14:59:20.675Z,18.30
2022-11-01T15:04:24.077Z,17.96
2022-11-01T15:09:30.240Z,17.50
2022-11-01T15:14:35.706Z,17.14
2022-11-01T15:19:38.006Z,17.07
2022-11-01T15:24:39.657Z,16.71
2022-11-01T15:29:42.462Z,16.70
2022-11-01T15:34:51.428Z,16.39
2022-11-01T15:39:53.319Z,16.35
2022-11-01T15:44:55.040Z,16.02
2022-11-01T15:49:59.220Z,15.74
2022-11-01T15:55:14.464Z,15.78
2022-11-01T16:00:20.494Z,15.66
2022-11-01T16:05:24.793Z,15.53
2022-11-01T16:10:29.626Z,15.55
2022-11-01T16:15:32.999Z,14.94
2022-11-01T16:20:35.483Z,14.80
2022-11-01T16:25:37.566Z,14.75
2022-11-01T16:30:47.321Z,14.74
2022-11-01T16:36:05.006Z,14.63
2022-11-01T16:41:24.305Z,14.57
2022-11-01T16:46:27.210Z,14.66
2022-11-01T16:51:30.158Z,14.71
2022-11-01T16:56:37.416Z,14.48
2022-11-01T17:01:39.654Z,14.38
2022-11-01T17:06:41.429Z,14.09
2022-11-01T17:11:49.525Z,14.05
2022-11-01T17:16:52.635Z,14.20
2022-11-01T17:21:54.336Z,14.13
2022-11-01T17:26:57.857Z,13.82
2022-11-01T17:32:00.978Z,13.69
2022-11-01T17:37:03.175Z,13.44
2022-11-01T17:42:04.815Z,12.97
2022-11-01T17:47:06.447Z,12.71
2022-11-01T17:52:08.124Z,12.28
2022-11-01T17:57:09.838Z,12.44
2022-11-01T18:02:11.594Z,11.98
2022-11-01T18:07:13.827Z,11.98
2022-11-01T18:12:26.665Z,11.70
2022-11-01T18:23:14.549Z,11.57
2022-11-01T18:28:23.118Z,11.50
2022-11-01T18:34:02.554Z,11.48
2022-11-01T18:39:32.687Z,11.34
2022-11-01T18:44:34.333Z,11.47
2022-11-01T18:49:35.952Z,11.56
2022-11-01T18:54:38.461Z,11.59
2022-11-01T18:59:40.379Z,11.59
2022-11-01T19:04:42.632Z,11.59
2022-11-01T19:09:58.453Z,11.54
2022-11-01T19:15:03.696Z,11.56
2022-11-01T19:20:32.235Z,11.63
2022-11-01T19:25:35.606Z,11.64
2022-11-01T19:30:37.294Z,11.57
2022-11-01T19:35:38.959Z,11.48
2022-11-01T19:40:41.373Z,11.43
2022-11-01T19:45:53.550Z,11.41
2022-11-01T19:50:55.317Z,11.45
2022-11-01T19:56:02.531Z,11.52
2022-11-01T20:01:19.906Z,11.57
2022-11-01T20:06:28.850Z,11.44
2022-11-01T20:11:32.201Z,11.52
2022-11-01T20:16:33.852Z,11.68
2022-11-01T20:21:35.538Z,11.50
2022-11-01T20:26:37.349Z,11.55
2022-11-01T20:31:39.041Z,11.47
2022-11-01T20:36:40.720Z,11.58
2022-11-01T20:41:42.353Z,11.09
2022-11-01T20:46:44.042Z,11.08
2022-11-01T20:51:45.978Z,11.07
2022-11-01T20:56:47.616Z,11.23
2022-11-01T21:01:49.392Z,11.13
2022-11-01T21:06:51.146Z,11.19
2022-11-01T21:11:52.881Z,11.03
2022-11-01T21:16:55.682Z,11.05
2022-11-01T21:21:58.007Z,11.02
2022-11-01T21:27:23.821Z,10.90
2022-11-01T21:32:34.504Z,10.90
2022-11-01T21:37:36.122Z,10.94
2022-11-01T21:42:38.924Z,10.73
2022-11-01T21:47:45.422Z,10.92
2022-11-01T21:52:47.435Z,10.87
2022-11-01T21:57:49.119Z,11.04
2022-11-01T22:02:50.752Z,11.02
2022-11-01T22:07:52.377Z,11.10
2022-11-01T22:12:54.000Z,10.96
2022-11-01T22:17:55.689Z,10.94
2022-11-01T22:22:57.331Z,10.90
2022-11-01T22:27:58.967Z,11.06
2022-11-01T22:33:00.842Z,10.98
2022-11-01T22:38:17.225Z,11.02
2022-11-01T22:43:18.928Z,10.90
2022-11-01T22:48:22.315Z,10.86
2022-11-01T22:53:23.937Z,10.96
2022-11-01T22:58:28.469Z,10.83
2022-11-01T23:03:37.574Z,10.98
2022-11-01T23:08:39.233Z,10.95
2022-11-01T23:13:59.436Z,10.87
2022-11-01T23:19:01.841Z,10.85
2022-11-01T23:24:03.560Z,10.87
2022-11-01T23:29:05.293Z,10.87
2022-11-01T23:34:09.467Z,10.96
2022-11-01T23:39:11.956Z,10.83
2022-11-01T23:44:19.875Z,10.82
2022-11-01T23:49:25.647Z,10.91
2022-11-01T23:54:33.346Z,11.31
2022-11-01T23:59:34.966Z,11.20
